Terminal Aerodrome Forecast
Issued by NWS

Home | Current Version | Previous Version | Text Only | Print | Product List | Glossary Off
Versions: 1 2 3 4 5 6 7 8 9 10 11 12 13 14 15 16 17 18

000
FTUS43 KTOP 251700
TAFMHK
TAF
KMHK 251732Z 2518/2618 23010KT P6SM FEW200
     FM260000 19012KT P6SM OVC080
     FM260600 26010KT P6SM VCSH SCT025 BKN050
     FM261200 32015KT P6SM SCT025 BKN050=

USA.gov is the U.S. government's official web portal to all federal, state and local government web resources and services.